createdAt,value
2018-08-23T00:03:47.539Z,7.80
2018-08-23T00:08:51.828Z,7.40
2018-08-23T00:13:55.798Z,7.00
2018-08-23T00:18:59.565Z,8.50
2018-08-23T00:24:12.877Z,8.75
2018-08-23T00:29:21.825Z,7.75
2018-08-23T00:34:30.046Z,7.50
2018-08-23T00:39:33.990Z,7.50
2018-08-23T00:44:56.363Z,8.00
2018-08-23T00:50:00.719Z,7.50
2018-08-23T00:55:12.669Z,8.00
2018-08-23T01:00:18.901Z,7.00
2018-08-23T01:05:27.889Z,7.00
2018-08-23T01:10:31.629Z,7.20
2018-08-23T01:15:35.420Z,7.75
2018-08-23T01:20:39.950Z,8.75
2018-08-23T01:25:44.817Z,7.60
2018-08-23T01:30:49.136Z,7.20
2018-08-23T01:35:53.102Z,8.60
2018-08-23T01:41:01.940Z,8.20
2018-08-23T01:46:05.709Z,7.20
2018-08-23T01:51:09.772Z,7.00
2018-08-23T01:56:13.516Z,6.25
2018-08-23T02:01:18.549Z,9.00
2018-08-23T02:06:23.352Z,8.25
2018-08-23T02:11:27.145Z,7.80
2018-08-23T02:16:42.160Z,8.00
2018-08-23T02:21:45.884Z,7.80
2018-08-23T02:26:49.619Z,6.25
2018-08-23T02:31:53.331Z,8.75
2018-08-23T02:36:57.141Z,7.25
2018-08-23T02:42:01.006Z,9.80
2018-08-23T02:47:04.814Z,8.20
2018-08-23T02:52:08.692Z,8.80
2018-08-23T02:57:12.668Z,7.60
2018-08-23T03:02:16.389Z,7.75
2018-08-23T03:07:23.472Z,7.50
2018-08-23T03:12:27.236Z,7.75
2018-08-23T03:17:34.346Z,6.80
2018-08-23T03:22:38.461Z,7.75
2018-08-23T03:27:42.228Z,8.25
2018-08-23T03:32:46.192Z,6.80
2018-08-23T03:37:49.951Z,8.00
2018-08-23T03:42:53.723Z,9.00
2018-08-23T03:47:57.519Z,8.75
2018-08-23T03:53:01.349Z,8.00
2018-08-23T03:58:05.133Z,8.60
2018-08-23T04:03:19.340Z,9.20
2018-08-23T04:08:23.163Z,8.00
2018-08-23T04:13:27.024Z,9.40
2018-08-23T04:18:30.818Z,9.40
2018-08-23T04:23:35.448Z,9.75
2018-08-23T04:28:39.252Z,9.00
2018-08-23T04:33:43.160Z,10.80
2018-08-23T04:38:51.019Z,10.00
2018-08-23T04:44:02.053Z,9.60
2018-08-23T04:49:07.437Z,10.25
2018-08-23T04:54:11.157Z,9.00
2018-08-23T04:59:14.912Z,12.40
2018-08-23T05:04:18.695Z,10.00
2018-08-23T05:09:22.477Z,9.50
2018-08-23T05:14:26.222Z,10.20
2018-08-23T05:19:30.023Z,10.60
2018-08-23T05:24:33.774Z,11.60
2018-08-23T05:29:37.533Z,11.50
2018-08-23T05:34:41.313Z,9.25
2018-08-23T05:39:51.116Z,12.20
2018-08-23T05:44:54.930Z,11.00
2018-08-23T05:49:58.744Z,12.50
2018-08-23T05:55:02.844Z,10.75
2018-08-23T06:00:06.637Z,12.00
2018-08-23T06:05:10.393Z,10.60
2018-08-23T06:10:15.006Z,11.25
2018-08-23T06:15:18.759Z,12.20
2018-08-23T06:20:22.581Z,12.00
2018-08-23T06:25:26.324Z,13.60
2018-08-23T06:30:30.155Z,12.75
2018-08-23T06:35:35.216Z,11.50
2018-08-23T06:40:38.993Z,11.60
2018-08-23T06:45:42.791Z,11.60
2018-08-23T06:50:51.693Z,12.25
2018-08-23T06:55:55.586Z,11.60
2018-08-23T07:00:59.429Z,14.00
2018-08-23T07:06:03.215Z,11.00
2018-08-23T07:11:13.515Z,12.60
2018-08-23T07:16:18.077Z,14.25
2018-08-23T07:21:22.043Z,11.80
2018-08-23T07:26:25.945Z,12.60
2018-08-23T07:31:29.747Z,11.40
2018-08-23T07:36:33.439Z,11.60
2018-08-23T07:41:37.135Z,11.50
2018-08-23T07:46:40.846Z,12.00
2018-08-23T07:51:44.593Z,12.20
2018-08-23T07:56:48.383Z,12.25
2018-08-23T08:01:52.163Z,11.25
2018-08-23T08:06:55.940Z,14.00
2018-08-23T08:12:00.616Z,12.25
2018-08-23T08:17:09.163Z,12.75
2018-08-23T08:22:12.955Z,11.50
2018-08-23T08:27:16.681Z,10.00
2018-08-23T08:32:20.383Z,11.00
2018-08-23T08:37:24.156Z,10.80
2018-08-23T08:42:33.076Z,10.40
2018-08-23T08:47:36.748Z,9.40
2018-08-23T08:52:40.475Z,9.75
2018-08-23T08:57:45.837Z,11.25
2018-08-23T09:02:49.569Z,9.75
2018-08-23T09:07:53.387Z,11.25
2018-08-23T09:12:57.189Z,11.00
2018-08-23T09:18:00.903Z,11.00
2018-08-23T09:23:04.635Z,11.00
2018-08-23T09:28:08.400Z,10.50
2018-08-23T09:33:16.218Z,11.00
2018-08-23T09:38:19.959Z,11.20
2018-08-23T09:43:23.738Z,10.00
2018-08-23T09:48:27.564Z,11.60
2018-08-23T09:53:31.904Z,11.25
2018-08-23T09:58:40.662Z,11.20
2018-08-23T10:03:49.532Z,11.25
2018-08-23T10:09:17.879Z,11.00
2018-08-23T10:14:27.488Z,10.00
2018-08-23T10:19:36.420Z,10.40
2018-08-23T10:24:40.183Z,11.00
2018-08-23T10:29:43.951Z,10.40
2018-08-23T10:34:47.604Z,10.00
2018-08-23T10:39:51.336Z,11.20
2018-08-23T10:44:55.007Z,10.75
2018-08-23T10:49:58.779Z,10.00
2018-08-23T10:55:02.608Z,12.00
2018-08-23T11:00:06.775Z,11.50
2018-08-23T11:05:10.558Z,9.60
2018-08-23T11:10:19.452Z,10.80
2018-08-23T11:15:23.904Z,11.60
2018-08-23T11:20:34.759Z,10.40
2018-08-23T11:25:38.500Z,10.00
2018-08-23T11:30:42.292Z,10.75
2018-08-23T11:35:46.166Z,10.20
2018-08-23T11:40:50.021Z,11.00
2018-08-23T11:46:01.942Z,10.20
2018-08-23T11:51:05.748Z,10.00
2018-08-23T11:56:10.024Z,9.25
2018-08-23T12:01:16.140Z,10.50
2018-08-23T12:06:19.868Z,10.60
2018-08-23T12:11:23.703Z,9.75
2018-08-23T12:16:27.512Z,9.75
2018-08-23T12:21:31.518Z,11.00
2018-08-23T12:26:35.283Z,10.25
2018-08-23T12:31:39.402Z,10.40
2018-08-23T12:37:50.863Z,9.00
2018-08-23T12:42:54.639Z,8.75
2018-08-23T12:47:58.482Z,8.50
2018-08-23T12:53:02.275Z,9.25
2018-08-23T12:58:09.800Z,7.60
2018-08-23T13:03:13.671Z,9.00
2018-08-23T13:08:17.414Z,8.00
2018-08-23T13:13:21.158Z,8.40
2018-08-23T13:18:24.882Z,7.20
2018-08-23T13:23:28.667Z,9.25
2018-08-23T13:28:32.483Z,8.75
2018-08-23T13:33:36.272Z,8.00
2018-08-23T13:38:40.135Z,8.60
2018-08-23T13:43:44.369Z,9.20
2018-08-23T13:48:48.053Z,8.60
2018-08-23T13:53:51.856Z,8.00
2018-08-23T13:58:56.844Z,7.50
2018-08-23T14:04:00.600Z,7.00
2018-08-23T14:09:05.404Z,6.50
2018-08-23T14:14:09.546Z,6.60
2018-08-23T14:19:13.482Z,6.25
2018-08-23T14:24:17.947Z,7.00
2018-08-23T14:29:22.003Z,5.75
2018-08-23T14:34:26.101Z,6.60
2018-08-23T14:39:30.154Z,6.75
2018-08-23T14:44:35.037Z,6.20
2018-08-23T14:49:38.878Z,9.00
2018-08-23T14:54:43.530Z,7.25
2018-08-23T14:59:47.785Z,6.00
2018-08-23T15:04:51.688Z,6.20
2018-08-23T15:09:55.477Z,5.25
2018-08-23T15:14:59.528Z,6.50
2018-08-23T15:20:03.928Z,6.40
2018-08-23T15:25:08.371Z,5.00
2018-08-23T15:30:12.187Z,5.20
2018-08-23T15:35:17.448Z,6.00
2018-08-23T15:40:21.280Z,5.75
2018-08-23T15:45:25.253Z,5.20
2018-08-23T15:50:29.917Z,7.00
2018-08-23T15:55:34.854Z,6.00
2018-08-23T16:00:38.427Z,6.00
2018-08-23T16:05:42.680Z,16.20
2018-08-23T16:10:46.561Z,17.75
2018-08-23T16:15:54.670Z,19.75
2018-08-23T16:21:03.104Z,22.00
2018-08-23T16:26:07.065Z,21.60
2018-08-23T16:31:10.906Z,20.20
2018-08-23T16:36:15.016Z,18.40
2018-08-23T16:41:18.835Z,15.20
2018-08-23T16:46:22.868Z,11.00
2018-08-23T16:51:26.604Z,10.50
2018-08-23T16:56:30.375Z,10.25
2018-08-23T17:01:34.382Z,11.00
2018-08-23T17:06:38.159Z,9.00
2018-08-23T17:11:42.039Z,11.00
2018-08-23T17:16:51.184Z,9.00
2018-08-23T17:21:54.922Z,8.40
2018-08-23T17:26:58.901Z,6.60
2018-08-23T17:32:02.830Z,8.20
2018-08-23T17:37:06.747Z,6.25
2018-08-23T17:42:10.591Z,6.00
2018-08-23T17:47:14.445Z,6.25
2018-08-23T17:52:18.247Z,6.00
2018-08-23T17:57:21.929Z,6.00
2018-08-23T18:02:25.752Z,6.00
2018-08-23T18:07:29.666Z,5.00
2018-08-23T18:12:34.068Z,5.25
2018-08-23T18:17:39.375Z,5.60
2018-08-23T18:22:43.346Z,4.40
2018-08-23T18:27:47.213Z,5.20
2018-08-23T18:32:51.232Z,6.00
2018-08-23T18:37:55.071Z,5.20
2018-08-23T18:42:59.040Z,5.50
2018-08-23T18:48:03.091Z,5.60
2018-08-23T18:53:07.023Z,3.60
2018-08-23T18:58:11.471Z,6.40
2018-08-23T19:03:15.374Z,5.00
2018-08-23T19:08:19.347Z,5.00
2018-08-23T19:13:23.143Z,6.60
2018-08-23T19:18:27.086Z,6.00
2018-08-23T19:23:31.026Z,5.40
2018-08-23T19:28:35.160Z,5.75
2018-08-23T19:33:39.033Z,5.50
2018-08-23T19:38:42.826Z,5.20
2018-08-23T19:43:47.011Z,4.50
2018-08-23T19:48:55.032Z,5.25
2018-08-23T19:53:58.891Z,5.40
2018-08-23T19:59:02.708Z,5.00
2018-08-23T20:04:06.684Z,5.75
2018-08-23T20:09:10.958Z,6.00
2018-08-23T20:14:15.031Z,5.75
2018-08-23T20:19:18.909Z,7.20
2018-08-23T20:24:22.732Z,6.00
2018-08-23T20:29:26.741Z,5.00
2018-08-23T20:34:30.980Z,5.25
2018-08-23T20:39:34.987Z,4.80
2018-08-23T20:44:39.018Z,6.00
2018-08-23T20:49:42.919Z,6.40
2018-08-23T20:54:47.120Z,5.25
2018-08-23T20:59:51.183Z,6.00
2018-08-23T21:04:55.150Z,6.00
2018-08-23T21:09:59.201Z,6.50
2018-08-23T21:15:03.190Z,6.00
2018-08-23T21:20:07.409Z,7.25
2018-08-23T21:25:11.245Z,5.60
2018-08-23T21:30:15.115Z,6.00
2018-08-23T21:35:18.899Z,5.50
2018-08-23T21:40:22.805Z,6.00
2018-08-23T21:45:26.627Z,7.00
2018-08-23T21:50:30.485Z,5.00
2018-08-23T21:55:38.540Z,6.25
2018-08-23T22:00:47.366Z,6.50
2018-08-23T22:05:51.369Z,7.00
2018-08-23T22:10:55.315Z,7.50
2018-08-23T22:15:59.214Z,6.25
2018-08-23T22:21:03.124Z,7.00
2018-08-23T22:26:07.123Z,6.00
2018-08-23T22:31:11.187Z,5.60
2018-08-23T22:36:15.095Z,6.75
2018-08-23T22:41:19.086Z,7.00
2018-08-23T22:46:23.087Z,7.00
2018-08-23T22:51:26.920Z,6.60
2018-08-23T22:56:30.736Z,7.00
2018-08-23T23:01:34.546Z,6.80
2018-08-23T23:06:38.388Z,6.75
2018-08-23T23:11:42.643Z,6.80
2018-08-23T23:16:46.486Z,7.00
2018-08-23T23:21:50.297Z,6.50
2018-08-23T23:26:54.833Z,6.20
2018-08-23T23:31:58.616Z,7.00
2018-08-23T23:37:02.356Z,8.00
2018-08-23T23:42:06.240Z,6.25
2018-08-23T23:47:10.006Z,7.00
2018-08-23T23:52:13.757Z,7.50
2018-08-23T23:57:17.526Z,8.25
